sensor_id;sensor_type;location;lat;lon;timestamp;pressure;altitude;pressure_sealevel;temperature;humidity
18500;BME280;9379;52.134;11.576;2023-05-24T01:59:03;101337.28;;;13.03;75.35
18500;BME280;9379;52.134;11.576;2023-05-24T02:01:32;101340.66;;;13.26;75.03
18500;BME280;9379;52.134;11.576;2023-05-24T02:04:00;101347.31;;;13.10;75.51
18500;BME280;9379;52.134;11.576;2023-05-24T02:06:28;101348.19;;;13.51;74.65
18500;BME280;9379;52.134;11.576;2023-05-24T02:08:54;101342.91;;;13.21;75.22
18500;BME280;9379;52.134;11.576;2023-05-24T02:11:21;101346.03;;;12.84;76.69
18500;BME280;9379;52.134;11.576;2023-05-24T02:13:48;101338.56;;;12.99;76.55
18500;BME280;9379;52.134;11.576;2023-05-24T02:16:16;101339.63;;;12.87;77.01
18500;BME280;9379;52.134;11.576;2023-05-24T02:18:43;101345.94;;;12.65;77.41
18500;BME280;9379;52.134;11.576;2023-05-24T02:21:11;101345.31;;;12.82;77.50
18500;BME280;9379;52.134;11.576;2023-05-24T02:23:38;101338.69;;;12.97;76.71
18500;BME280;9379;52.134;11.576;2023-05-24T02:26:05;101343.81;;;13.10;75.58
18500;BME280;9379;52.134;11.576;2023-05-24T02:28:31;101345.50;;;13.11;76.44
18500;BME280;9379;52.134;11.576;2023-05-24T02:30:58;101337.34;;;13.12;75.76
18500;BME280;9379;52.134;11.576;2023-05-24T02:33:26;101344.47;;;12.61;77.04
18500;BME280;9379;52.134;11.576;2023-05-24T02:35:54;101337.72;;;12.56;77.33
18500;BME280;9379;52.134;11.576;2023-05-24T02:38:21;101336.75;;;12.57;77.65
18500;BME280;9379;52.134;11.576;2023-05-24T02:40:48;101334.75;;;13.01;76.74
18500;BME280;9379;52.134;11.576;2023-05-24T02:43:15;101336.69;;;12.48;77.87
18500;BME280;9379;52.134;11.576;2023-05-24T02:45:41;101332.59;;;12.85;77.30
18500;BME280;9379;52.134;11.576;2023-05-24T02:48:08;101326.19;;;12.98;76.41
18500;BME280;9379;52.134;11.576;2023-05-24T02:50:36;101331.56;;;12.77;76.98
18500;BME280;9379;52.134;11.576;2023-05-24T02:53:03;101317.03;;;12.70;77.70
18500;BME280;9379;52.134;11.576;2023-05-24T02:55:30;101334.50;;;12.53;77.42
18500;BME280;9379;52.134;11.576;2023-05-24T02:57:58;101338.44;;;12.59;77.67
18500;BME280;9379;52.134;11.576;2023-05-24T03:00:25;101333.78;;;12.51;78.30
18500;BME280;9379;52.134;11.576;2023-05-24T03:02:52;101333.22;;;12.36;78.44
18500;BME280;9379;52.134;11.576;2023-05-24T03:05:21;101337.31;;;12.61;77.85
18500;BME280;9379;52.134;11.576;2023-05-24T03:07:49;101336.94;;;12.66;77.64
18500;BME280;9379;52.134;11.576;2023-05-24T03:10:16;101342.16;;;11.93;79.87
18500;BME280;9379;52.134;11.576;2023-05-24T03:12:42;101333.53;;;12.22;79.17
18500;BME280;9379;52.134;11.576;2023-05-24T03:15:10;101343.50;;;12.20;78.82
18500;BME280;9379;52.134;11.576;2023-05-24T03:17:36;101345.25;;;12.72;78.04
18500;BME280;9379;52.134;11.576;2023-05-24T03:20:04;101344.81;;;12.46;78.24
18500;BME280;9379;52.134;11.576;2023-05-24T03:22:32;101348.13;;;12.80;77.44
18500;BME280;9379;52.134;11.576;2023-05-24T03:25:00;101347.88;;;12.63;77.97
18500;BME280;9379;52.134;11.576;2023-05-24T03:27:26;101344.47;;;12.81;77.62
18500;BME280;9379;52.134;11.576;2023-05-24T03:29:53;101344.22;;;12.84;77.12
18500;BME280;9379;52.134;11.576;2023-05-24T03:32:20;101333.75;;;12.72;77.67
18500;BME280;9379;52.134;11.576;2023-05-24T03:34:47;101350.06;;;12.99;77.23
18500;BME280;9379;52.134;11.576;2023-05-24T03:37:14;101336.09;;;12.86;77.94
18500;BME280;9379;52.134;11.576;2023-05-24T03:39:41;101334.09;;;12.57;78.06
18500;BME280;9379;52.134;11.576;2023-05-24T03:42:09;101351.19;;;12.02;79.71
18500;BME280;9379;52.134;11.576;2023-05-24T03:44:36;101350.97;;;12.26;80.01
18500;BME280;9379;52.134;11.576;2023-05-24T03:47:03;101346.50;;;12.47;80.02
18500;BME280;9379;52.134;11.576;2023-05-24T03:49:30;101351.28;;;12.65;78.25
18500;BME280;9379;52.134;11.576;2023-05-24T03:51:57;101350.78;;;12.80;78.17
18500;BME280;9379;52.134;11.576;2023-05-24T03:54:24;101353.56;;;12.37;79.46
18500;BME280;9379;52.134;11.576;2023-05-24T03:56:51;101334.88;;;11.95;80.91
18500;BME280;9379;52.134;11.576;2023-05-24T03:59:19;101338.38;;;12.49;79.56
18500;BME280;9379;52.134;11.576;2023-05-24T04:01:47;101347.75;;;12.64;78.70
18500;BME280;9379;52.134;11.576;2023-05-24T04:04:13;101355.13;;;13.02;77.33
18500;BME280;9379;52.134;11.576;2023-05-24T04:06:40;101363.22;;;12.29;79.50
18500;BME280;9379;52.134;11.576;2023-05-24T04:09:07;101345.72;;;12.36;79.51
18500;BME280;9379;52.134;11.576;2023-05-24T04:11:34;101353.38;;;12.29;80.01
18500;BME280;9379;52.134;11.576;2023-05-24T04:14:01;101348.81;;;13.03;78.02
18500;BME280;9379;52.134;11.576;2023-05-24T04:16:30;101346.84;;;12.75;78.96
18500;BME280;9379;52.134;11.576;2023-05-24T04:18:58;101355.28;;;12.80;78.84
18500;BME280;9379;52.134;11.576;2023-05-24T04:21:26;101345.59;;;12.79;78.58
18500;BME280;9379;52.134;11.576;2023-05-24T04:23:53;101343.84;;;12.68;79.90
18500;BME280;9379;52.134;11.576;2023-05-24T04:26:20;101352.41;;;12.72;79.31
18500;BME280;9379;52.134;11.576;2023-05-24T04:28:47;101342.56;;;12.93;78.55
18500;BME280;9379;52.134;11.576;2023-05-24T04:31:14;101351.53;;;13.13;78.55
18500;BME280;9379;52.134;11.576;2023-05-24T04:33:42;101349.34;;;12.97;79.31
18500;BME280;9379;52.134;11.576;2023-05-24T04:36:09;101355.03;;;12.41;80.06
18500;BME280;9379;52.134;11.576;2023-05-24T04:38:38;101348.97;;;12.60;80.71
18500;BME280;9379;52.134;11.576;2023-05-24T04:41:05;101356.69;;;12.84;79.47
18500;BME280;9379;52.134;11.576;2023-05-24T04:43:32;101357.44;;;12.44;80.72
18500;BME280;9379;52.134;11.576;2023-05-24T04:45:59;101340.59;;;12.85;79.73
18500;BME280;9379;52.134;11.576;2023-05-24T04:48:26;101361.31;;;12.61;80.19
18500;BME280;9379;52.134;11.576;2023-05-24T04:50:55;101366.09;;;12.57;80.56
18500;BME280;9379;52.134;11.576;2023-05-24T04:53:22;101361.84;;;12.97;80.14
18500;BME280;9379;52.134;11.576;2023-05-24T04:55:50;101360.81;;;12.88;80.40
18500;BME280;9379;52.134;11.576;2023-05-24T04:58:16;101368.25;;;12.64;80.33
18500;BME280;9379;52.134;11.576;2023-05-24T05:00:44;101370.94;;;12.73;80.17
18500;BME280;9379;52.134;11.576;2023-05-24T05:03:11;101371.84;;;13.04;80.23
18500;BME280;9379;52.134;11.576;2023-05-24T05:05:38;101373.41;;;13.28;79.25
18500;BME280;9379;52.134;11.576;2023-05-24T05:08:06;101369.88;;;12.97;79.98
18500;BME280;9379;52.134;11.576;2023-05-24T05:10:33;101367.88;;;13.20;79.61
18500;BME280;9379;52.134;11.576;2023-05-24T05:13:01;101373.59;;;13.36;79.03
18500;BME280;9379;52.134;11.576;2023-05-24T05:15:27;101371.56;;;13.07;80.04
18500;BME280;9379;52.134;11.576;2023-05-24T05:17:55;101384.00;;;13.39;79.22
18500;BME280;9379;52.134;11.576;2023-05-24T05:20:21;101379.22;;;13.12;80.15
18500;BME280;9379;52.134;11.576;2023-05-24T05:22:48;101386.09;;;12.94;79.98
18500;BME280;9379;52.134;11.576;2023-05-24T05:25:17;101387.78;;;12.85;80.58
18500;BME280;9379;52.134;11.576;2023-05-24T05:27:43;101388.28;;;13.21;80.41
18500;BME280;9379;52.134;11.576;2023-05-24T05:30:11;101384.00;;;13.18;79.70
18500;BME280;9379;52.134;11.576;2023-05-24T05:32:38;101381.88;;;13.12;80.40
18500;BME280;9379;52.134;11.576;2023-05-24T05:35:05;101393.78;;;13.08;80.99
18500;BME280;9379;52.134;11.576;2023-05-24T05:37:32;101392.94;;;13.07;80.58
18500;BME280;9379;52.134;11.576;2023-05-24T05:39:59;101391.00;;;12.68;81.29
18500;BME280;9379;52.134;11.576;2023-05-24T05:42:27;101387.31;;;13.22;80.92
18500;BME280;9379;52.134;11.576;2023-05-24T05:44:54;101381.16;;;13.71;78.52
18500;BME280;9379;52.134;11.576;2023-05-24T05:47:21;101392.69;;;13.41;79.39
18500;BME280;9379;52.134;11.576;2023-05-24T05:49:47;101403.91;;;12.63;81.58
18500;BME280;9379;52.134;11.576;2023-05-24T05:52:14;101389.25;;;12.57;82.25
18500;BME280;9379;52.134;11.576;2023-05-24T05:54:41;101395.50;;;12.88;81.17
18500;BME280;9379;52.134;11.576;2023-05-24T05:57:08;101392.88;;;13.49;79.68
18500;BME280;9379;52.134;11.576;2023-05-24T05:59:38;101397.94;;;13.52;79.40
18500;BME280;9379;52.134;11.576;2023-05-24T06:02:05;101397.28;;;13.29;80.48
18500;BME280;9379;52.134;11.576;2023-05-24T06:04:32;101402.38;;;13.72;79.33
18500;BME280;9379;52.134;11.576;2023-05-24T06:06:59;101394.38;;;13.72;79.07
18500;BME280;9379;52.134;11.576;2023-05-24T06:09:26;101403.44;;;13.51;79.29
18500;BME280;9379;52.134;11.576;2023-05-24T06:11:52;101403.16;;;14.04;78.37
18500;BME280;9379;52.134;11.576;2023-05-24T06:14:19;101402.81;;;13.37;79.70
18500;BME280;9379;52.134;11.576;2023-05-24T06:16:50;101401.88;;;13.48;80.06
18500;BME280;9379;52.134;11.576;2023-05-24T06:19:18;101405.63;;;13.66;78.80
18500;BME280;9379;52.134;11.576;2023-05-24T06:21:46;101414.97;;;13.00;81.07
18500;BME280;9379;52.134;11.576;2023-05-24T06:24:15;101422.63;;;13.14;80.59
18500;BME280;9379;52.134;11.576;2023-05-24T06:26:45;101425.25;;;13.25;80.84
18500;BME280;9379;52.134;11.576;2023-05-24T06:29:11;101426.97;;;12.94;81.79
18500;BME280;9379;52.134;11.576;2023-05-24T06:31:38;101421.06;;;13.11;82.24
18500;BME280;9379;52.134;11.576;2023-05-24T06:34:06;101427.69;;;13.17;81.50
18500;BME280;9379;52.134;11.576;2023-05-24T06:36:33;101418.13;;;12.94;81.14
18500;BME280;9379;52.134;11.576;2023-05-24T06:39:05;101417.75;;;13.80;79.55
18500;BME280;9379;52.134;11.576;2023-05-24T06:41:32;101412.50;;;13.38;80.39
18500;BME280;9379;52.134;11.576;2023-05-24T06:43:59;101422.59;;;13.56;80.18
18500;BME280;9379;52.134;11.576;2023-05-24T06:46:25;101415.28;;;13.58;81.05
18500;BME280;9379;52.134;11.576;2023-05-24T06:48:52;101438.06;;;14.12;78.86
18500;BME280;9379;52.134;11.576;2023-05-24T06:51:20;101419.44;;;13.81;78.89
18500;BME280;9379;52.134;11.576;2023-05-24T06:53:47;101428.44;;;13.80;79.79
18500;BME280;9379;52.134;11.576;2023-05-24T06:56:14;101431.22;;;13.38;79.58
18500;BME280;9379;52.134;11.576;2023-05-24T06:58:41;101439.38;;;13.77;79.74
18500;BME280;9379;52.134;11.576;2023-05-24T07:01:08;101444.53;;;14.09;78.96
18500;BME280;9379;52.134;11.576;2023-05-24T07:03:35;101455.25;;;13.38;80.31
18500;BME280;9379;52.134;11.576;2023-05-24T07:06:02;101445.94;;;14.04;79.10
18500;BME280;9379;52.134;11.576;2023-05-24T07:08:30;101446.31;;;13.49;80.62
18500;BME280;9379;52.134;11.576;2023-05-24T07:10:57;101445.44;;;13.89;79.47
18500;BME280;9379;52.134;11.576;2023-05-24T07:13:24;101443.94;;;13.56;80.20
18500;BME280;9379;52.134;11.576;2023-05-24T07:15:52;101457.69;;;13.51;80.17
18500;BME280;9379;52.134;11.576;2023-05-24T07:18:18;101448.03;;;13.60;80.14
18500;BME280;9379;52.134;11.576;2023-05-24T07:20:45;101451.38;;;13.22;80.77
18500;BME280;9379;52.134;11.576;2023-05-24T07:23:12;101460.06;;;13.03;81.19
18500;BME280;9379;52.134;11.576;2023-05-24T07:25:41;101452.88;;;13.03;81.57
18500;BME280;9379;52.134;11.576;2023-05-24T07:28:08;101467.13;;;12.93;81.96
18500;BME280;9379;52.134;11.576;2023-05-24T07:30:34;101469.41;;;13.60;80.37
18500;BME280;9379;52.134;11.576;2023-05-24T07:33:03;101452.47;;;13.50;80.78
18500;BME280;9379;52.134;11.576;2023-05-24T07:35:30;101474.97;;;13.47;81.09
18500;BME280;9379;52.134;11.576;2023-05-24T07:37:57;101457.75;;;14.01;79.55
18500;BME280;9379;52.134;11.576;2023-05-24T07:40:24;101463.50;;;13.66;80.47
18500;BME280;9379;52.134;11.576;2023-05-24T07:42:52;101453.13;;;13.32;81.19
18500;BME280;9379;52.134;11.576;2023-05-24T07:45:19;101470.13;;;13.31;81.82
18500;BME280;9379;52.134;11.576;2023-05-24T07:47:45;101466.41;;;13.23;81.94
18500;BME280;9379;52.134;11.576;2023-05-24T07:50:12;101466.97;;;13.78;80.95
18500;BME280;9379;52.134;11.576;2023-05-24T07:52:39;101470.38;;;13.59;81.03
18500;BME280;9379;52.134;11.576;2023-05-24T07:55:06;101474.78;;;13.39;81.50
18500;BME280;9379;52.134;11.576;2023-05-24T07:57:33;101474.94;;;13.68;80.48
18500;BME280;9379;52.134;11.576;2023-05-24T08:00:01;101460.78;;;13.47;80.74
18500;BME280;9379;52.134;11.576;2023-05-24T08:02:34;101484.31;;;13.32;82.04
18500;BME280;9379;52.134;11.576;2023-05-24T08:05:01;101473.06;;;13.89;80.77
18500;BME280;9379;52.134;11.576;2023-05-24T08:07:29;101471.97;;;13.71;80.82
18500;BME280;9379;52.134;11.576;2023-05-24T08:09:56;101478.44;;;13.38;81.78
18500;BME280;9379;52.134;11.576;2023-05-24T08:12:22;101480.31;;;13.47;81.72
18500;BME280;9379;52.134;11.576;2023-05-24T08:14:50;101471.84;;;14.13;79.92
18500;BME280;9379;52.134;11.576;2023-05-24T08:17:18;101476.13;;;13.85;79.80
18500;BME280;9379;52.134;11.576;2023-05-24T08:19:45;101473.97;;;14.19;78.90
18500;BME280;9379;52.134;11.576;2023-05-24T08:22:12;101475.97;;;13.86;80.37
18500;BME280;9379;52.134;11.576;2023-05-24T08:24:39;101484.13;;;14.35;79.34
18500;BME280;9379;52.134;11.576;2023-05-24T08:27:06;101476.94;;;14.35;78.93
18500;BME280;9379;52.134;11.576;2023-05-24T08:29:34;101482.75;;;14.00;79.76
18500;BME280;9379;52.134;11.576;2023-05-24T08:32:01;101471.75;;;14.24;79.49
18500;BME280;9379;52.134;11.576;2023-05-24T08:34:29;101492.44;;;14.41;79.32
18500;BME280;9379;52.134;11.576;2023-05-24T08:36:56;101470.78;;;14.44;78.73
18500;BME280;9379;52.134;11.576;2023-05-24T08:39:23;101474.97;;;14.27;79.73
18500;BME280;9379;52.134;11.576;2023-05-24T08:41:51;101489.84;;;14.11;81.08
18500;BME280;9379;52.134;11.576;2023-05-24T08:44:18;101479.75;;;14.24;79.80
18500;BME280;9379;52.134;11.576;2023-05-24T08:46:46;101479.19;;;14.30;79.85
18500;BME280;9379;52.134;11.576;2023-05-24T08:49:15;101500.38;;;14.52;78.90
18500;BME280;9379;52.134;11.576;2023-05-24T08:51:45;101508.84;;;14.86;78.38
18500;BME280;9379;52.134;11.576;2023-05-24T08:54:12;101502.94;;;14.83;78.98
18500;BME280;9379;52.134;11.576;2023-05-24T08:56:40;101506.59;;;14.72;79.30
18500;BME280;9379;52.134;11.576;2023-05-24T08:59:07;101509.16;;;14.34;79.70
18500;BME280;9379;52.134;11.576;2023-05-24T09:01:36;101507.72;;;14.60;79.73
18500;BME280;9379;52.134;11.576;2023-05-24T09:04:06;101513.44;;;14.46;79.12
18500;BME280;9379;52.134;11.576;2023-05-24T09:06:34;101508.28;;;14.14;80.50
18500;BME280;9379;52.134;11.576;2023-05-24T09:09:03;101515.63;;;14.71;80.00
18500;BME280;9379;52.134;11.576;2023-05-24T09:11:31;101506.31;;;14.66;79.22
18500;BME280;9379;52.134;11.576;2023-05-24T09:13:59;101517.84;;;15.05;78.40
18500;BME280;9379;52.134;11.576;2023-05-24T09:16:26;101502.75;;;15.23;77.03
18500;BME280;9379;52.134;11.576;2023-05-24T09:18:53;101503.78;;;14.83;78.25
18500;BME280;9379;52.134;11.576;2023-05-24T09:21:20;101490.81;;;14.59;79.96
18500;BME280;9379;52.134;11.576;2023-05-24T09:23:48;101498.09;;;15.15;78.27
18500;BME280;9379;52.134;11.576;2023-05-24T09:26:16;101506.66;;;15.38;78.03
18500;BME280;9379;52.134;11.576;2023-05-24T09:28:43;101501.22;;;14.53;79.75
18500;BME280;9379;52.134;11.576;2023-05-24T09:31:12;101513.91;;;14.89;79.38
18500;BME280;9379;52.134;11.576;2023-05-24T09:33:39;101512.63;;;15.32;78.18
18500;BME280;9379;52.134;11.576;2023-05-24T09:36:07;101504.13;;;15.46;76.91
18500;BME280;9379;52.134;11.576;2023-05-24T09:38:34;101496.88;;;15.76;75.92
18500;BME280;9379;52.134;11.576;2023-05-24T09:41:02;101495.69;;;15.88;76.09
18500;BME280;9379;52.134;11.576;2023-05-24T09:43:31;101521.47;;;15.52;75.68
18500;BME280;9379;52.134;11.576;2023-05-24T09:46:01;101516.13;;;15.33;76.78
18500;BME280;9379;52.134;11.576;2023-05-24T09:48:29;101517.97;;;15.32;77.00
18500;BME280;9379;52.134;11.576;2023-05-24T09:50:59;101506.81;;;15.46;76.04
18500;BME280;9379;52.134;11.576;2023-05-24T09:53:26;101497.13;;;15.83;74.64
18500;BME280;9379;52.134;11.576;2023-05-24T09:55:53;101499.09;;;16.08;74.67
18500;BME280;9379;52.134;11.576;2023-05-24T09:58:21;101500.53;;;16.30;75.83
18500;BME280;9379;52.134;11.576;2023-05-24T10:01:02;101486.09;;;15.39;75.16
18500;BME280;9379;52.134;11.576;2023-05-24T10:03:29;101503.88;;;15.87;74.76
18500;BME280;9379;52.134;11.576;2023-05-24T10:05:57;101506.09;;;16.19;74.07
18500;BME280;9379;52.134;11.576;2023-05-24T10:08:24;101481.13;;;16.18;75.10
18500;BME280;9379;52.134;11.576;2023-05-24T10:10:52;101485.47;;;16.01;73.53
18500;BME280;9379;52.134;11.576;2023-05-24T10:13:21;101484.47;;;16.02;72.97
18500;BME280;9379;52.134;11.576;2023-05-24T10:15:50;101498.88;;;16.01;72.75
18500;BME280;9379;52.134;11.576;2023-05-24T10:18:17;101510.16;;;15.68;74.45
18500;BME280;9379;52.134;11.576;2023-05-24T10:20:44;101508.09;;;16.17;74.58
18500;BME280;9379;52.134;11.576;2023-05-24T10:23:14;101512.28;;;15.55;73.89
18500;BME280;9379;52.134;11.576;2023-05-24T10:25:50;101511.34;;;15.93;73.92
18500;BME280;9379;52.134;11.576;2023-05-24T10:28:19;101509.84;;;15.71;73.33
18500;BME280;9379;52.134;11.576;2023-05-24T10:30:58;101515.84;;;16.20;72.49
18500;BME280;9379;52.134;11.576;2023-05-24T10:33:26;101518.34;;;15.66;73.13
18500;BME280;9379;52.134;11.576;2023-05-24T10:35:54;101520.91;;;15.95;73.25
18500;BME280;9379;52.134;11.576;2023-05-24T10:38:22;101513.59;;;16.43;71.86
18500;BME280;9379;52.134;11.576;2023-05-24T10:40:50;101519.13;;;16.14;71.85
18500;BME280;9379;52.134;11.576;2023-05-24T10:43:17;101491.53;;;16.03;71.21
18500;BME280;9379;52.134;11.576;2023-05-24T10:45:48;101491.28;;;16.24;72.89
18500;BME280;9379;52.134;11.576;2023-05-24T10:48:38;101506.63;;;16.50;72.35
18500;BME280;9379;52.134;11.576;2023-05-24T10:51:30;101516.22;;;16.80;71.60
18500;BME280;9379;52.134;11.576;2023-05-24T10:54:14;101511.31;;;16.48;71.28
18500;BME280;9379;52.134;11.576;2023-05-24T10:56:46;101511.19;;;16.22;72.60
18500;BME280;9379;52.134;11.576;2023-05-24T10:59:22;101502.00;;;16.70;71.38
18500;BME280;9379;52.134;11.576;2023-05-24T11:01:56;101521.16;;;16.29;72.05
18500;BME280;9379;52.134;11.576;2023-05-24T11:04:25;101517.31;;;16.32;73.35
18500;BME280;9379;52.134;11.576;2023-05-24T11:06:54;101510.03;;;15.50;75.13
18500;BME280;9379;52.134;11.576;2023-05-24T11:09:23;101531.66;;;15.86;74.09
18500;BME280;9379;52.134;11.576;2023-05-24T11:11:54;101528.06;;;16.04;73.38
18500;BME280;9379;52.134;11.576;2023-05-24T11:14:23;101526.38;;;16.31;72.30
18500;BME280;9379;52.134;11.576;2023-05-24T11:16:50;101527.94;;;16.51;72.79
18500;BME280;9379;52.134;11.576;2023-05-24T11:19:19;101532.09;;;16.91;72.15
18500;BME280;9379;52.134;11.576;2023-05-24T11:21:49;101531.69;;;17.04;71.34
18500;BME280;9379;52.134;11.576;2023-05-24T11:24:17;101529.47;;;16.99;71.57
18500;BME280;9379;52.134;11.576;2023-05-24T11:26:44;101528.44;;;17.18;71.01
18500;BME280;9379;52.134;11.576;2023-05-24T11:29:12;101532.53;;;16.69;73.52
18500;BME280;9379;52.134;11.576;2023-05-24T11:31:46;101526.69;;;17.09;72.14
18500;BME280;9379;52.134;11.576;2023-05-24T11:34:13;101530.31;;;16.54;73.22
18500;BME280;9379;52.134;11.576;2023-05-24T11:36:41;101519.78;;;16.88;72.48
18500;BME280;9379;52.134;11.576;2023-05-24T11:39:09;101526.69;;;17.09;71.08
18500;BME280;9379;52.134;11.576;2023-05-24T11:41:37;101525.97;;;17.25;70.69
18500;BME280;9379;52.134;11.576;2023-05-24T11:44:06;101525.53;;;17.11;71.55
18500;BME280;9379;52.134;11.576;2023-05-24T11:46:33;101527.25;;;16.95;72.12
18500;BME280;9379;52.134;11.576;2023-05-24T11:49:00;101509.28;;;16.95;72.51
18500;BME280;9379;52.134;11.576;2023-05-24T11:51:28;101525.72;;;16.92;72.71
18500;BME280;9379;52.134;11.576;2023-05-24T11:53:55;101526.63;;;17.44;70.90
18500;BME280;9379;52.134;11.576;2023-05-24T11:56:23;101518.66;;;17.35;71.42
18500;BME280;9379;52.134;11.576;2023-05-24T11:59:01;101523.91;;;17.62;69.37
18500;BME280;9379;52.134;11.576;2023-05-24T12:01:30;101520.25;;;17.45;69.35
18500;BME280;9379;52.134;11.576;2023-05-24T12:03:57;101521.78;;;16.86;70.44
18500;BME280;9379;52.134;11.576;2023-05-24T12:06:33;101515.53;;;17.21;70.44
18500;BME280;9379;52.134;11.576;2023-05-24T12:09:00;101527.25;;;16.95;70.44
18500;BME280;9379;52.134;11.576;2023-05-24T12:11:31;101523.69;;;16.31;71.44
18500;BME280;9379;52.134;11.576;2023-05-24T12:13:58;101520.19;;;16.76;70.35
18500;BME280;9379;52.134;11.576;2023-05-24T12:16:25;101514.50;;;16.97;70.48
18500;BME280;9379;52.134;11.576;2023-05-24T12:18:56;101514.50;;;17.40;69.24
18500;BME280;9379;52.134;11.576;2023-05-24T12:21:23;101514.03;;;17.71;69.53
18500;BME280;9379;52.134;11.576;2023-05-24T12:23:50;101517.03;;;17.68;69.81
18500;BME280;9379;52.134;11.576;2023-05-24T12:26:17;101517.88;;;16.99;70.59
18500;BME280;9379;52.134;11.576;2023-05-24T12:28:52;101516.06;;;17.69;68.88
18500;BME280;9379;52.134;11.576;2023-05-24T12:31:19;101519.66;;;17.77;69.25
18500;BME280;9379;52.134;11.576;2023-05-24T12:33:46;101517.28;;;18.08;67.79
18500;BME280;9379;52.134;11.576;2023-05-24T12:36:13;101513.28;;;18.21;67.65
18500;BME280;9379;52.134;11.576;2023-05-24T12:38:40;101500.69;;;18.21;66.88
18500;BME280;9379;52.134;11.576;2023-05-24T12:41:09;101514.09;;;17.79;67.04
18500;BME280;9379;52.134;11.576;2023-05-24T12:43:36;101502.56;;;17.87;68.32
18500;BME280;9379;52.134;11.576;2023-05-24T12:46:04;101512.91;;;18.07;68.27
18500;BME280;9379;52.134;11.576;2023-05-24T12:48:31;101516.03;;;17.43;67.35
18500;BME280;9379;52.134;11.576;2023-05-24T12:50:58;101523.00;;;17.79;68.24
18500;BME280;9379;52.134;11.576;2023-05-24T12:53:25;101516.56;;;16.85;70.28
18500;BME280;9379;52.134;11.576;2023-05-24T12:55:51;101518.78;;;17.25;69.67
18500;BME280;9379;52.134;11.576;2023-05-24T12:58:20;101515.63;;;17.82;68.49
18500;BME280;9379;52.134;11.576;2023-05-24T13:00:47;101508.41;;;17.82;69.11
18500;BME280;9379;52.134;11.576;2023-05-24T13:03:16;101492.91;;;17.50;68.69
18500;BME280;9379;52.134;11.576;2023-05-24T13:05:43;101499.41;;;17.39;71.33
18500;BME280;9379;52.134;11.576;2023-05-24T13:08:10;101516.59;;;17.03;70.87
18500;BME280;9379;52.134;11.576;2023-05-24T13:10:38;101496.00;;;17.63;68.09
18500;BME280;9379;52.134;11.576;2023-05-24T13:13:05;101506.25;;;17.60;68.18
18500;BME280;9379;52.134;11.576;2023-05-24T13:15:32;101492.66;;;17.61;67.70
18500;BME280;9379;52.134;11.576;2023-05-24T13:17:59;101505.00;;;18.06;68.03
18500;BME280;9379;52.134;11.576;2023-05-24T13:20:27;101514.59;;;18.17;66.53
18500;BME280;9379;52.134;11.576;2023-05-24T13:22:54;101517.34;;;17.91;67.10
18500;BME280;9379;52.134;11.576;2023-05-24T13:25:21;101517.94;;;17.50;67.28
18500;BME280;9379;52.134;11.576;2023-05-24T13:27:47;101522.69;;;17.57;69.81
18500;BME280;9379;52.134;11.576;2023-05-24T13:30:14;101506.84;;;17.71;67.69
18500;BME280;9379;52.134;11.576;2023-05-24T13:32:42;101511.22;;;18.06;66.09
18500;BME280;9379;52.134;11.576;2023-05-24T13:35:09;101501.97;;;18.09;65.16
18500;BME280;9379;52.134;11.576;2023-05-24T13:37:37;101506.69;;;18.07;67.00
18500;BME280;9379;52.134;11.576;2023-05-24T13:40:06;101509.75;;;18.28;66.76
18500;BME280;9379;52.134;11.576;2023-05-24T13:42:33;101509.00;;;16.80;68.50
18500;BME280;9379;52.134;11.576;2023-05-24T13:45:00;101503.44;;;17.43;67.36
18500;BME280;9379;52.134;11.576;2023-05-24T13:47:28;101510.13;;;17.65;67.56
18500;BME280;9379;52.134;11.576;2023-05-24T13:49:54;101505.94;;;17.37;66.83
18500;BME280;9379;52.134;11.576;2023-05-24T13:52:22;101501.16;;;17.74;65.71
18500;BME280;9379;52.134;11.576;2023-05-24T13:54:50;101489.63;;;16.59;68.77
18500;BME280;9379;52.134;11.576;2023-05-24T13:57:17;101487.06;;;17.29;67.51
18500;BME280;9379;52.134;11.576;2023-05-24T13:59:44;101500.75;;;17.17;67.18
18500;BME280;9379;52.134;11.576;2023-05-24T14:02:12;101509.28;;;17.65;67.51
18500;BME280;9379;52.134;11.576;2023-05-24T14:04:40;101513.47;;;17.85;67.76
18500;BME280;9379;52.134;11.576;2023-05-24T14:07:07;101509.78;;;17.86;66.75
18500;BME280;9379;52.134;11.576;2023-05-24T14:09:37;101522.06;;;17.89;66.84
18500;BME280;9379;52.134;11.576;2023-05-24T14:12:06;101511.69;;;18.02;67.98
18500;BME280;9379;52.134;11.576;2023-05-24T14:14:33;101507.81;;;17.70;66.66
18500;BME280;9379;52.134;11.576;2023-05-24T14:17:00;101511.09;;;17.56;67.09
18500;BME280;9379;52.134;11.576;2023-05-24T14:19:27;101519.97;;;17.74;69.43
18500;BME280;9379;52.134;11.576;2023-05-24T14:21:54;101520.78;;;18.01;67.17
18500;BME280;9379;52.134;11.576;2023-05-24T14:24:20;101523.50;;;18.17;67.14
18500;BME280;9379;52.134;11.576;2023-05-24T14:26:48;101515.50;;;17.65;67.87
18500;BME280;9379;52.134;11.576;2023-05-24T14:29:16;101507.38;;;17.75;67.48
18500;BME280;9379;52.134;11.576;2023-05-24T14:31:44;101521.84;;;17.82;68.74
18500;BME280;9379;52.134;11.576;2023-05-24T14:34:10;101518.81;;;17.59;67.88
18500;BME280;9379;52.134;11.576;2023-05-24T14:36:38;101522.13;;;17.71;66.78
18500;BME280;9379;52.134;11.576;2023-05-24T14:39:06;101528.44;;;17.88;66.57
18500;BME280;9379;52.134;11.576;2023-05-24T14:41:33;101531.03;;;18.05;67.62
18500;BME280;9379;52.134;11.576;2023-05-24T14:44:00;101526.19;;;17.49;68.64
18500;BME280;9379;52.134;11.576;2023-05-24T14:46:28;101523.25;;;17.16;69.32
18500;BME280;9379;52.134;11.576;2023-05-24T14:48:55;101533.31;;;17.40;69.19
18500;BME280;9379;52.134;11.576;2023-05-24T14:51:22;101525.44;;;17.21;67.32